sensor_id;sensor_type;location;lat;lon;timestamp;P1;durP1;ratioP1;P2;durP2;ratioP2
20480;SDS011;10399;50.754;3.366;2022-09-09T00:05:04;5.85;;;1.45;;
20480;SDS011;10399;50.754;3.366;2022-09-09T00:07:48;6.13;;;0.98;;
20480;SDS011;10399;50.754;3.366;2022-09-09T00:18:49;6.07;;;1.02;;
20480;SDS011;10399;50.754;3.366;2022-09-09T00:21:38;2.65;;;1.00;;
20480;SDS011;10399;50.754;3.366;2022-09-09T00:24:22;4.20;;;1.15;;
20480;SDS011;10399;50.754;3.366;2022-09-09T00:26:56;2.85;;;1.02;;
20480;SDS011;10399;50.754;3.366;2022-09-09T00:29:47;3.30;;;1.02;;
20480;SDS011;10399;50.754;3.366;2022-09-09T00:32:22;3.53;;;1.08;;
20480;SDS011;10399;50.754;3.366;2022-09-09T00:35:02;6.70;;;1.23;;
20480;SDS011;10399;50.754;3.366;2022-09-09T00:37:42;4.07;;;1.02;;
20480;SDS011;10399;50.754;3.366;2022-09-09T00:51:30;3.97;;;1.67;;
20480;SDS011;10399;50.754;3.366;2022-09-09T00:59:52;4.68;;;1.17;;
20480;SDS011;10399;50.754;3.366;2022-09-09T01:02:27;6.28;;;1.23;;
20480;SDS011;10399;50.754;3.366;2022-09-09T01:05:00;2.67;;;1.27;;
20480;SDS011;10399;50.754;3.366;2022-09-09T01:07:33;3.63;;;1.05;;
20480;SDS011;10399;50.754;3.366;2022-09-09T01:10:00;4.28;;;1.10;;
20480;SDS011;10399;50.754;3.366;2022-09-09T01:12:40;5.80;;;1.42;;
20480;SDS011;10399;50.754;3.366;2022-09-09T01:15:28;2.75;;;1.20;;
20480;SDS011;10399;50.754;3.366;2022-09-09T01:20:37;6.65;;;1.55;;
20480;SDS011;10399;50.754;3.366;2022-09-09T01:26:49;7.72;;;1.33;;
20480;SDS011;10399;50.754;3.366;2022-09-09T01:29:12;5.20;;;1.65;;
20480;SDS011;10399;50.754;3.366;2022-09-09T01:31:54;7.13;;;1.27;;
20480;SDS011;10399;50.754;3.366;2022-09-09T01:34:23;6.10;;;1.52;;
20480;SDS011;10399;50.754;3.366;2022-09-09T01:36:53;4.40;;;1.50;;
20480;SDS011;10399;50.754;3.366;2022-09-09T01:39:29;5.63;;;1.52;;
20480;SDS011;10399;50.754;3.366;2022-09-09T01:41:56;5.93;;;1.50;;
20480;SDS011;10399;50.754;3.366;2022-09-09T01:44:24;7.15;;;1.88;;
20480;SDS011;10399;50.754;3.366;2022-09-09T01:46:52;6.00;;;1.20;;
20480;SDS011;10399;50.754;3.366;2022-09-09T01:49:19;7.88;;;1.50;;
20480;SDS011;10399;50.754;3.366;2022-09-09T01:51:48;10.05;;;2.00;;
20480;SDS011;10399;50.754;3.366;2022-09-09T01:54:19;8.35;;;1.50;;
20480;SDS011;10399;50.754;3.366;2022-09-09T02:04:44;4.07;;;1.33;;
20480;SDS011;10399;50.754;3.366;2022-09-09T02:10:08;8.40;;;1.85;;
20480;SDS011;10399;50.754;3.366;2022-09-09T02:13:04;6.90;;;1.80;;
20480;SDS011;10399;50.754;3.366;2022-09-09T02:15:53;12.30;;;2.20;;
20480;SDS011;10399;50.754;3.366;2022-09-09T02:18:25;5.70;;;1.75;;
20480;SDS011;10399;50.754;3.366;2022-09-09T02:20:56;10.90;;;1.60;;
20480;SDS011;10399;50.754;3.366;2022-09-09T02:23:25;7.65;;;1.65;;
20480;SDS011;10399;50.754;3.366;2022-09-09T02:25:54;10.80;;;2.03;;
20480;SDS011;10399;50.754;3.366;2022-09-09T02:28:24;7.22;;;1.73;;
20480;SDS011;10399;50.754;3.366;2022-09-09T02:30:55;11.27;;;2.28;;
20480;SDS011;10399;50.754;3.366;2022-09-09T02:33:26;9.00;;;2.05;;
20480;SDS011;10399;50.754;3.366;2022-09-09T02:35:56;12.73;;;2.38;;
20480;SDS011;10399;50.754;3.366;2022-09-09T02:38:30;13.27;;;1.83;;
20480;SDS011;10399;50.754;3.366;2022-09-09T02:41:03;8.63;;;1.90;;
20480;SDS011;10399;50.754;3.366;2022-09-09T02:43:31;8.38;;;2.15;;
20480;SDS011;10399;50.754;3.366;2022-09-09T02:49:09;7.65;;;1.85;;
20480;SDS011;10399;50.754;3.366;2022-09-09T02:51:53;10.13;;;2.28;;
20480;SDS011;10399;50.754;3.366;2022-09-09T02:54:29;15.52;;;2.30;;
20480;SDS011;10399;50.754;3.366;2022-09-09T02:57:12;8.57;;;2.08;;
20480;SDS011;10399;50.754;3.366;2022-09-09T02:59:52;7.40;;;1.50;;
20480;SDS011;10399;50.754;3.366;2022-09-09T03:02:19;10.70;;;2.30;;
20480;SDS011;10399;50.754;3.366;2022-09-09T03:04:46;7.20;;;1.73;;
20480;SDS011;10399;50.754;3.366;2022-09-09T03:07:17;12.23;;;2.00;;
20480;SDS011;10399;50.754;3.366;2022-09-09T03:09:45;14.15;;;2.42;;
20480;SDS011;10399;50.754;3.366;2022-09-09T03:12:12;12.25;;;2.15;;
20480;SDS011;10399;50.754;3.366;2022-09-09T03:14:39;8.23;;;2.15;;
20480;SDS011;10399;50.754;3.366;2022-09-09T03:17:06;12.05;;;2.20;;
20480;SDS011;10399;50.754;3.366;2022-09-09T03:19:33;12.30;;;2.20;;
20480;SDS011;10399;50.754;3.366;2022-09-09T03:22:01;10.20;;;2.17;;
20480;SDS011;10399;50.754;3.366;2022-09-09T03:24:30;7.93;;;1.92;;
20480;SDS011;10399;50.754;3.366;2022-09-09T03:26:57;15.75;;;2.45;;
20480;SDS011;10399;50.754;3.366;2022-09-09T03:29:24;9.38;;;1.95;;
20480;SDS011;10399;50.754;3.366;2022-09-09T03:31:51;18.27;;;2.35;;
20480;SDS011;10399;50.754;3.366;2022-09-09T03:34:17;8.25;;;2.05;;
20480;SDS011;10399;50.754;3.366;2022-09-09T03:36:44;13.75;;;2.33;;
20480;SDS011;10399;50.754;3.366;2022-09-09T03:39:12;8.13;;;1.90;;
20480;SDS011;10399;50.754;3.366;2022-09-09T03:41:40;13.75;;;2.78;;
20480;SDS011;10399;50.754;3.366;2022-09-09T03:44:07;11.60;;;2.08;;
20480;SDS011;10399;50.754;3.366;2022-09-09T03:46:34;13.10;;;2.55;;
20480;SDS011;10399;50.754;3.366;2022-09-09T03:49:01;16.38;;;2.47;;
20480;SDS011;10399;50.754;3.366;2022-09-09T03:51:29;9.98;;;2.28;;
20480;SDS011;10399;50.754;3.366;2022-09-09T03:53:58;11.75;;;2.30;;
20480;SDS011;10399;50.754;3.366;2022-09-09T03:56:25;12.45;;;2.55;;
20480;SDS011;10399;50.754;3.366;2022-09-09T03:58:52;14.05;;;2.92;;
20480;SDS011;10399;50.754;3.366;2022-09-09T04:01:18;10.55;;;2.60;;
20480;SDS011;10399;50.754;3.366;2022-09-09T04:03:45;14.20;;;2.90;;
20480;SDS011;10399;50.754;3.366;2022-09-09T04:06:12;12.43;;;1.90;;
20480;SDS011;10399;50.754;3.366;2022-09-09T04:08:40;10.75;;;2.30;;
20480;SDS011;10399;50.754;3.366;2022-09-09T04:11:08;11.48;;;2.10;;
20480;SDS011;10399;50.754;3.366;2022-09-09T04:13:36;13.43;;;2.60;;
20480;SDS011;10399;50.754;3.366;2022-09-09T04:16:05;13.57;;;2.65;;
20480;SDS011;10399;50.754;3.366;2022-09-09T04:18:33;14.43;;;2.35;;
20480;SDS011;10399;50.754;3.366;2022-09-09T04:21:01;13.50;;;2.75;;
20480;SDS011;10399;50.754;3.366;2022-09-09T04:23:29;12.18;;;2.42;;
20480;SDS011;10399;50.754;3.366;2022-09-09T04:25:57;11.85;;;2.50;;
20480;SDS011;10399;50.754;3.366;2022-09-09T04:28:26;19.17;;;3.25;;
20480;SDS011;10399;50.754;3.366;2022-09-09T04:30:55;11.05;;;2.28;;
20480;SDS011;10399;50.754;3.366;2022-09-09T04:33:25;14.73;;;2.60;;
20480;SDS011;10399;50.754;3.366;2022-09-09T04:35:56;11.40;;;2.70;;
20480;SDS011;10399;50.754;3.366;2022-09-09T04:38:23;11.32;;;2.50;;
20480;SDS011;10399;50.754;3.366;2022-09-09T04:40:50;15.13;;;3.03;;
20480;SDS011;10399;50.754;3.366;2022-09-09T04:43:18;11.93;;;2.33;;
20480;SDS011;10399;50.754;3.366;2022-09-09T04:45:46;11.25;;;2.35;;
20480;SDS011;10399;50.754;3.366;2022-09-09T04:48:14;12.05;;;3.10;;
20480;SDS011;10399;50.754;3.366;2022-09-09T04:50:42;14.77;;;2.65;;
20480;SDS011;10399;50.754;3.366;2022-09-09T04:53:09;12.23;;;2.10;;
20480;SDS011;10399;50.754;3.366;2022-09-09T04:55:36;14.07;;;2.50;;
20480;SDS011;10399;50.754;3.366;2022-09-09T04:58:04;15.27;;;2.63;;
20480;SDS011;10399;50.754;3.366;2022-09-09T05:00:33;10.25;;;2.40;;
20480;SDS011;10399;50.754;3.366;2022-09-09T05:03:02;14.48;;;2.35;;
20480;SDS011;10399;50.754;3.366;2022-09-09T05:05:32;11.45;;;2.42;;
20480;SDS011;10399;50.754;3.366;2022-09-09T05:08:02;15.45;;;2.65;;
20480;SDS011;10399;50.754;3.366;2022-09-09T05:10:31;9.07;;;2.38;;
20480;SDS011;10399;50.754;3.366;2022-09-09T05:12:59;12.40;;;1.90;;
20480;SDS011;10399;50.754;3.366;2022-09-09T05:15:26;10.32;;;2.30;;
20480;SDS011;10399;50.754;3.366;2022-09-09T05:17:56;8.30;;;2.75;;
20480;SDS011;10399;50.754;3.366;2022-09-09T05:20:27;9.73;;;2.38;;
20480;SDS011;10399;50.754;3.366;2022-09-09T05:22:55;11.35;;;2.45;;
20480;SDS011;10399;50.754;3.366;2022-09-09T05:25:23;11.38;;;2.80;;
20480;SDS011;10399;50.754;3.366;2022-09-09T05:27:52;10.27;;;2.13;;
20480;SDS011;10399;50.754;3.366;2022-09-09T05:30:20;12.52;;;2.17;;
20480;SDS011;10399;50.754;3.366;2022-09-09T05:32:48;11.55;;;2.90;;
20480;SDS011;10399;50.754;3.366;2022-09-09T05:35:15;12.20;;;2.70;;
20480;SDS011;10399;50.754;3.366;2022-09-09T05:37:44;7.22;;;2.08;;
20480;SDS011;10399;50.754;3.366;2022-09-09T05:40:12;10.63;;;2.67;;
20480;SDS011;10399;50.754;3.366;2022-09-09T05:42:40;10.73;;;2.40;;
20480;SDS011;10399;50.754;3.366;2022-09-09T05:45:08;11.85;;;2.20;;
20480;SDS011;10399;50.754;3.366;2022-09-09T05:47:35;10.40;;;2.13;;
20480;SDS011;10399;50.754;3.366;2022-09-09T05:50:03;8.98;;;2.47;;
20480;SDS011;10399;50.754;3.366;2022-09-09T05:52:31;12.85;;;3.63;;
20480;SDS011;10399;50.754;3.366;2022-09-09T05:54:58;18.52;;;2.53;;
20480;SDS011;10399;50.754;3.366;2022-09-09T05:57:26;8.52;;;1.98;;
20480;SDS011;10399;50.754;3.366;2022-09-09T05:59:52;13.27;;;2.63;;
20480;SDS011;10399;50.754;3.366;2022-09-09T06:02:19;9.02;;;2.00;;
20480;SDS011;10399;50.754;3.366;2022-09-09T06:04:47;13.77;;;2.17;;
20480;SDS011;10399;50.754;3.366;2022-09-09T06:07:14;15.35;;;2.90;;
20480;SDS011;10399;50.754;3.366;2022-09-09T06:09:41;12.02;;;2.22;;
20480;SDS011;10399;50.754;3.366;2022-09-09T06:12:08;13.18;;;2.22;;
20480;SDS011;10399;50.754;3.366;2022-09-09T06:14:35;9.52;;;2.13;;
20480;SDS011;10399;50.754;3.366;2022-09-09T06:17:03;12.35;;;2.20;;
20480;SDS011;10399;50.754;3.366;2022-09-09T06:19:31;16.45;;;2.53;;
20480;SDS011;10399;50.754;3.366;2022-09-09T06:21:58;14.55;;;2.40;;
20480;SDS011;10399;50.754;3.366;2022-09-09T06:24:25;12.10;;;3.17;;
20480;SDS011;10399;50.754;3.366;2022-09-09T06:26:52;9.52;;;2.50;;
20480;SDS011;10399;50.754;3.366;2022-09-09T06:29:20;12.93;;;2.58;;
20480;SDS011;10399;50.754;3.366;2022-09-09T06:31:47;14.63;;;2.55;;
20480;SDS011;10399;50.754;3.366;2022-09-09T06:34:14;8.05;;;2.50;;
20480;SDS011;10399;50.754;3.366;2022-09-09T06:36:41;10.02;;;2.85;;
20480;SDS011;10399;50.754;3.366;2022-09-09T06:39:08;12.52;;;2.28;;
20480;SDS011;10399;50.754;3.366;2022-09-09T06:41:40;13.60;;;2.55;;
20480;SDS011;10399;50.754;3.366;2022-09-09T06:44:09;11.23;;;2.30;;
20480;SDS011;10399;50.754;3.366;2022-09-09T06:46:38;15.32;;;2.58;;
20480;SDS011;10399;50.754;3.366;2022-09-09T06:49:07;12.65;;;2.55;;
20480;SDS011;10399;50.754;3.366;2022-09-09T06:51:35;15.90;;;3.35;;
20480;SDS011;10399;50.754;3.366;2022-09-09T06:54:11;16.85;;;2.70;;
20480;SDS011;10399;50.754;3.366;2022-09-09T06:56:39;10.68;;;2.58;;
20480;SDS011;10399;50.754;3.366;2022-09-09T06:59:08;13.68;;;2.58;;
20480;SDS011;10399;50.754;3.366;2022-09-09T07:01:37;6.88;;;1.92;;
20480;SDS011;10399;50.754;3.366;2022-09-09T07:04:10;10.13;;;2.65;;
20480;SDS011;10399;50.754;3.366;2022-09-09T07:06:38;16.35;;;3.20;;
20480;SDS011;10399;50.754;3.366;2022-09-09T07:09:10;9.48;;;2.33;;
20480;SDS011;10399;50.754;3.366;2022-09-09T07:11:40;15.02;;;2.58;;
20480;SDS011;10399;50.754;3.366;2022-09-09T07:14:09;13.93;;;2.97;;
20480;SDS011;10399;50.754;3.366;2022-09-09T07:16:40;15.30;;;3.08;;
20480;SDS011;10399;50.754;3.366;2022-09-09T07:19:09;8.95;;;2.40;;
20480;SDS011;10399;50.754;3.366;2022-09-09T07:21:36;16.50;;;2.75;;
20480;SDS011;10399;50.754;3.366;2022-09-09T07:24:03;11.40;;;2.55;;
20480;SDS011;10399;50.754;3.366;2022-09-09T07:26:34;13.25;;;2.78;;
20480;SDS011;10399;50.754;3.366;2022-09-09T07:29:01;5.38;;;2.17;;
20480;SDS011;10399;50.754;3.366;2022-09-09T07:31:29;14.88;;;2.63;;
20480;SDS011;10399;50.754;3.366;2022-09-09T07:33:58;16.15;;;3.60;;
20480;SDS011;10399;50.754;3.366;2022-09-09T07:36:29;10.55;;;2.63;;
20480;SDS011;10399;50.754;3.366;2022-09-09T07:39:03;12.45;;;2.67;;
20480;SDS011;10399;50.754;3.366;2022-09-09T07:41:36;13.65;;;3.22;;
20480;SDS011;10399;50.754;3.366;2022-09-09T07:44:07;23.25;;;3.85;;
20480;SDS011;10399;50.754;3.366;2022-09-09T07:46:35;10.43;;;2.28;;
20480;SDS011;10399;50.754;3.366;2022-09-09T07:49:03;10.02;;;2.53;;
20480;SDS011;10399;50.754;3.366;2022-09-09T07:51:31;8.15;;;2.67;;
20480;SDS011;10399;50.754;3.366;2022-09-09T07:54:02;9.80;;;2.97;;
20480;SDS011;10399;50.754;3.366;2022-09-09T07:56:32;12.50;;;3.22;;
20480;SDS011;10399;50.754;3.366;2022-09-09T07:58:59;9.63;;;2.60;;
20480;SDS011;10399;50.754;3.366;2022-09-09T08:01:31;10.20;;;2.83;;
20480;SDS011;10399;50.754;3.366;2022-09-09T08:04:06;12.13;;;3.20;;
20480;SDS011;10399;50.754;3.366;2022-09-09T08:06:46;11.43;;;2.75;;
20480;SDS011;10399;50.754;3.366;2022-09-09T08:09:14;12.60;;;2.28;;
20480;SDS011;10399;50.754;3.366;2022-09-09T08:11:42;11.65;;;2.88;;
20480;SDS011;10399;50.754;3.366;2022-09-09T08:14:10;12.07;;;3.00;;
20480;SDS011;10399;50.754;3.366;2022-09-09T08:16:42;11.60;;;2.80;;
20480;SDS011;10399;50.754;3.366;2022-09-09T08:19:11;8.52;;;2.42;;
20480;SDS011;10399;50.754;3.366;2022-09-09T08:21:39;12.75;;;3.05;;
20480;SDS011;10399;50.754;3.366;2022-09-09T08:24:07;11.38;;;3.40;;
20480;SDS011;10399;50.754;3.366;2022-09-09T08:26:37;10.27;;;3.00;;
20480;SDS011;10399;50.754;3.366;2022-09-09T08:29:08;15.48;;;3.42;;
20480;SDS011;10399;50.754;3.366;2022-09-09T08:31:44;11.68;;;3.20;;
20480;SDS011;10399;50.754;3.366;2022-09-09T08:34:21;11.80;;;2.80;;
20480;SDS011;10399;50.754;3.366;2022-09-09T08:36:48;12.35;;;2.40;;
20480;SDS011;10399;50.754;3.366;2022-09-09T08:39:16;11.18;;;3.10;;
20480;SDS011;10399;50.754;3.366;2022-09-09T08:55:50;9.85;;;2.78;;
20480;SDS011;10399;50.754;3.366;2022-09-09T08:58:19;9.45;;;3.33;;
20480;SDS011;10399;50.754;3.366;2022-09-09T09:11:22;7.80;;;2.72;;
20480;SDS011;10399;50.754;3.366;2022-09-09T09:14:08;11.10;;;2.20;;
20480;SDS011;10399;50.754;3.366;2022-09-09T09:19:17;4.82;;;1.67;;
20480;SDS011;10399;50.754;3.366;2022-09-09T09:21:45;7.72;;;2.33;;
20480;SDS011;10399;50.754;3.366;2022-09-09T09:24:30;8.82;;;2.10;;
20480;SDS011;10399;50.754;3.366;2022-09-09T09:27:00;10.07;;;2.03;;
20480;SDS011;10399;50.754;3.366;2022-09-09T09:29:39;6.65;;;1.67;;
20480;SDS011;10399;50.754;3.366;2022-09-09T09:32:29;10.45;;;2.47;;
20480;SDS011;10399;50.754;3.366;2022-09-09T09:35:00;5.75;;;1.52;;
20480;SDS011;10399;50.754;3.366;2022-09-09T09:37:34;6.55;;;1.70;;
20480;SDS011;10399;50.754;3.366;2022-09-09T09:40:17;10.82;;;2.13;;
20480;SDS011;10399;50.754;3.366;2022-09-09T09:42:53;10.35;;;2.28;;
20480;SDS011;10399;50.754;3.366;2022-09-09T09:45:32;6.80;;;2.00;;
20480;SDS011;10399;50.754;3.366;2022-09-09T09:50:33;7.65;;;2.13;;
20480;SDS011;10399;50.754;3.366;2022-09-09T09:53:04;7.28;;;1.60;;
20480;SDS011;10399;50.754;3.366;2022-09-09T09:55:33;7.07;;;2.28;;
20480;SDS011;10399;50.754;3.366;2022-09-09T09:58:06;7.15;;;2.00;;
20480;SDS011;10399;50.754;3.366;2022-09-09T10:00:47;8.60;;;2.40;;
20480;SDS011;10399;50.754;3.366;2022-09-09T10:05:57;5.78;;;2.03;;
20480;SDS011;10399;50.754;3.366;2022-09-09T10:08:24;7.68;;;1.80;;
20480;SDS011;10399;50.754;3.366;2022-09-09T10:11:07;11.85;;;2.47;;
20480;SDS011;10399;50.754;3.366;2022-09-09T10:19:16;6.03;;;1.65;;
20480;SDS011;10399;50.754;3.366;2022-09-09T10:27:36;7.32;;;1.58;;
20480;SDS011;10399;50.754;3.366;2022-09-09T10:32:48;10.20;;;1.83;;
20480;SDS011;10399;50.754;3.366;2022-09-09T10:40:30;4.57;;;1.10;;
20480;SDS011;10399;50.754;3.366;2022-09-09T10:51:40;2.20;;;1.00;;
20480;SDS011;10399;50.754;3.366;2022-09-09T10:57:41;4.18;;;1.58;;
20480;SDS011;10399;50.754;3.366;2022-09-09T11:00:19;11.55;;;2.50;;
20480;SDS011;10399;50.754;3.366;2022-09-09T11:02:55;5.93;;;1.13;;
20480;SDS011;10399;50.754;3.366;2022-09-09T11:05:31;4.25;;;1.23;;
20480;SDS011;10399;50.754;3.366;2022-09-09T11:08:05;4.75;;;1.40;;
20480;SDS011;10399;50.754;3.366;2022-09-09T11:11:02;10.20;;;1.80;;
20480;SDS011;10399;50.754;3.366;2022-09-09T11:13:42;7.10;;;1.45;;
20480;SDS011;10399;50.754;3.366;2022-09-09T11:16:17;5.45;;;1.52;;
20480;SDS011;10399;50.754;3.366;2022-09-09T11:19:34;7.32;;;1.73;;
20480;SDS011;10399;50.754;3.366;2022-09-09T11:22:13;3.10;;;1.60;;
20480;SDS011;10399;50.754;3.366;2022-09-09T11:24:50;11.10;;;1.50;;
20480;SDS011;10399;50.754;3.366;2022-09-09T11:27:49;7.88;;;1.60;;
20480;SDS011;10399;50.754;3.366;2022-09-09T11:38:47;6.13;;;1.67;;
20480;SDS011;10399;50.754;3.366;2022-09-09T11:41:18;7.75;;;1.50;;
20480;SDS011;10399;50.754;3.366;2022-09-09T11:43:48;4.45;;;1.60;;
20480;SDS011;10399;50.754;3.366;2022-09-09T11:46:19;3.65;;;1.50;;
20480;SDS011;10399;50.754;3.366;2022-09-09T11:48:59;4.97;;;1.30;;
20480;SDS011;10399;50.754;3.366;2022-09-09T11:51:32;3.88;;;1.48;;
20480;SDS011;10399;50.754;3.366;2022-09-09T11:54:01;4.30;;;1.35;;
20480;SDS011;10399;50.754;3.366;2022-09-09T11:56:49;6.95;;;1.63;;
20480;SDS011;10399;50.754;3.366;2022-09-09T11:59:23;5.38;;;1.50;;
20480;SDS011;10399;50.754;3.366;2022-09-09T12:06:51;3.03;;;1.30;;
20480;SDS011;10399;50.754;3.366;2022-09-09T12:09:29;5.80;;;1.40;;
20480;SDS011;10399;50.754;3.366;2022-09-09T12:12:18;4.30;;;1.45;;
20480;SDS011;10399;50.754;3.366;2022-09-09T12:14:57;5.20;;;1.63;;
20480;SDS011;10399;50.754;3.366;2022-09-09T12:17:51;5.97;;;1.40;;
20480;SDS011;10399;50.754;3.366;2022-09-09T12:20:38;6.93;;;1.80;;
20480;SDS011;10399;50.754;3.366;2022-09-09T12:26:13;7.00;;;1.48;;
20480;SDS011;10399;50.754;3.366;2022-09-09T12:34:33;6.75;;;1.90;;
20480;SDS011;10399;50.754;3.366;2022-09-09T12:37:06;4.57;;;1.63;;
20480;SDS011;10399;50.754;3.366;2022-09-09T12:39:45;4.55;;;1.38;;
20480;SDS011;10399;50.754;3.366;2022-09-09T12:42:21;3.15;;;1.80;;
20480;SDS011;10399;50.754;3.366;2022-09-09T12:44:59;6.90;;;1.80;;
20480;SDS011;10399;50.754;3.366;2022-09-09T12:47:40;6.32;;;1.88;;
20480;SDS011;10399;50.754;3.366;2022-09-09T12:50:28;5.30;;;2.15;;
20480;SDS011;10399;50.754;3.366;2022-09-09T12:53:07;4.38;;;1.70;;
20480;SDS011;10399;50.754;3.366;2022-09-09T12:56:00;2.95;;;1.60;;
20480;SDS011;10399;50.754;3.366;2022-09-09T12:58:29;4.43;;;1.67;;
20480;SDS011;10399;50.754;3.366;2022-09-09T13:01:02;5.10;;;1.77;;
20480;SDS011;10399;50.754;3.366;2022-09-09T13:03:32;6.25;;;1.60;;
20480;SDS011;10399;50.754;3.366;2022-09-09T13:06:13;4.72;;;1.80;;
20480;SDS011;10399;50.754;3.366;2022-09-09T13:08:55;7.05;;;1.73;;
20480;SDS011;10399;50.754;3.366;2022-09-09T13:14:26;7.70;;;1.95;;
20480;SDS011;10399;50.754;3.366;2022-09-09T13:16:57;4.70;;;1.63;;
20480;SDS011;10399;50.754;3.366;2022-09-09T13:19:26;4.50;;;1.60;;
20480;SDS011;10399;50.754;3.366;2022-09-09T13:21:58;5.93;;;1.70;;
20480;SDS011;10399;50.754;3.366;2022-09-09T13:24:33;12.02;;;2.10;;
20480;SDS011;10399;50.754;3.366;2022-09-09T13:27:02;5.72;;;2.40;;
20480;SDS011;10399;50.754;3.366;2022-09-09T13:29:52;6.85;;;1.90;;
20480;SDS011;10399;50.754;3.366;2022-09-09T13:32:22;6.10;;;1.55;;
20480;SDS011;10399;50.754;3.366;2022-09-09T13:34:55;5.53;;;1.98;;
20480;SDS011;10399;50.754;3.366;2022-09-09T13:40:04;5.35;;;1.70;;
20480;SDS011;10399;50.754;3.366;2022-09-09T13:42:37;3.97;;;1.65;;
20480;SDS011;10399;50.754;3.366;2022-09-09T13:45:16;6.90;;;1.95;;
20480;SDS011;10399;50.754;3.366;2022-09-09T13:47:48;4.97;;;1.50;;
20480;SDS011;10399;50.754;3.366;2022-09-09T13:50:28;7.22;;;2.08;;
20480;SDS011;10399;50.754;3.366;2022-09-09T13:52:56;6.32;;;2.15;;
20480;SDS011;10399;50.754;3.366;2022-09-09T13:55:26;6.20;;;1.80;;
20480;SDS011;10399;50.754;3.366;2022-09-09T13:57:57;7.20;;;1.77;;
20480;SDS011;10399;50.754;3.366;2022-09-09T14:00:28;5.78;;;1.60;;
20480;SDS011;10399;50.754;3.366;2022-09-09T14:02:57;5.32;;;2.05;;
20480;SDS011;10399;50.754;3.366;2022-09-09T14:05:24;7.50;;;1.73;;
20480;SDS011;10399;50.754;3.366;2022-09-09T14:07:51;6.60;;;1.92;;
20480;SDS011;10399;50.754;3.366;2022-09-09T14:10:18;4.47;;;1.67;;
20480;SDS011;10399;50.754;3.366;2022-09-09T14:12:45;3.38;;;1.77;;
20480;SDS011;10399;50.754;3.366;2022-09-09T14:15:13;5.20;;;1.70;;
20480;SDS011;10399;50.754;3.366;2022-09-09T14:17:40;4.30;;;1.40;;
20480;SDS011;10399;50.754;3.366;2022-09-09T14:20:08;8.98;;;1.92;;
20480;SDS011;10399;50.754;3.366;2022-09-09T14:22:37;5.80;;;2.30;;
20480;SDS011;10399;50.754;3.366;2022-09-09T14:25:05;8.75;;;1.67;;
20480;SDS011;10399;50.754;3.366;2022-09-09T14:27:33;8.65;;;2.00;;
20480;SDS011;10399;50.754;3.366;2022-09-09T14:30:00;6.82;;;1.85;;
20480;SDS011;10399;50.754;3.366;2022-09-09T14:32:27;6.43;;;1.60;;
20480;SDS011;10399;50.754;3.366;2022-09-09T14:34:55;6.82;;;1.95;;
20480;SDS011;10399;50.754;3.366;2022-09-09T14:37:22;5.28;;;1.58;;
20480;SDS011;10399;50.754;3.366;2022-09-09T14:39:50;3.10;;;1.25;;
20480;SDS011;10399;50.754;3.366;2022-09-09T14:42:17;6.10;;;1.60;;
20480;SDS011;10399;50.754;3.366;2022-09-09T14:44:45;9.25;;;2.30;;
20480;SDS011;10399;50.754;3.366;2022-09-09T14:47:12;4.72;;;1.75;;
20480;SDS011;10399;50.754;3.366;2022-09-09T14:49:39;4.22;;;1.75;;
20480;SDS011;10399;50.754;3.366;2022-09-09T14:52:12;9.02;;;2.08;;
20480;SDS011;10399;50.754;3.366;2022-09-09T14:54:39;6.15;;;1.83;;
20480;SDS011;10399;50.754;3.366;2022-09-09T14:57:06;3.60;;;1.52;;
20480;SDS011;10399;50.754;3.366;2022-09-09T14:59:33;6.75;;;1.80;;
20480;SDS011;10399;50.754;3.366;2022-09-09T15:02:00;4.05;;;1.38;;
20480;SDS011;10399;50.754;3.366;2022-09-09T15:04:30;7.00;;;2.05;;
20480;SDS011;10399;50.754;3.366;2022-09-09T15:06:57;5.40;;;1.63;;
20480;SDS011;10399;50.754;3.366;2022-09-09T15:09:25;4.10;;;1.98;;
20480;SDS011;10399;50.754;3.366;2022-09-09T15:11:51;4.72;;;2.15;;
20480;SDS011;10399;50.754;3.366;2022-09-09T15:14:18;4.38;;;1.50;;
20480;SDS011;10399;50.754;3.366;2022-09-09T15:16:50;5.63;;;1.42;;
20480;SDS011;10399;50.754;3.366;2022-09-09T15:19:17;8.60;;;1.98;;
20480;SDS011;10399;50.754;3.366;2022-09-09T15:21:44;4.60;;;1.40;;
20480;SDS011;10399;50.754;3.366;2022-09-09T15:24:11;5.30;;;1.50;;
20480;SDS011;10399;50.754;3.366;2022-09-09T15:26:39;6.50;;;1.67;;
20480;SDS011;10399;50.754;3.366;2022-09-09T15:29:06;8.38;;;1.63;;
20480;SDS011;10399;50.754;3.366;2022-09-09T15:31:34;6.97;;;1.70;;
20480;SDS011;10399;50.754;3.366;2022-09-09T15:34:03;4.00;;;1.52;;
20480;SDS011;10399;50.754;3.366;2022-09-09T15:36:33;4.57;;;1.27;;
20480;SDS011;10399;50.754;3.366;2022-09-09T15:39:00;3.10;;;0.90;;
20480;SDS011;10399;50.754;3.366;2022-09-09T15:41:29;2.28;;;0.80;;
20480;SDS011;10399;50.754;3.366;2022-09-09T15:43:59;7.38;;;1.92;;
20480;SDS011;10399;50.754;3.366;2022-09-09T15:49:13;5.47;;;1.30;;
20480;SDS011;10399;50.754;3.366;2022-09-09T15:51:46;4.07;;;1.02;;
20480;SDS011;10399;50.754;3.366;2022-09-09T15:54:19;5.43;;;0.80;;
20480;SDS011;10399;50.754;3.366;2022-09-09T15:56:51;3.28;;;1.05;;
20480;SDS011;10399;50.754;3.366;2022-09-09T15:59:24;4.20;;;1.20;;
20480;SDS011;10399;50.754;3.366;2022-09-09T16:01:52;5.63;;;1.33;;
20480;SDS011;10399;50.754;3.366;2022-09-09T16:04:19;3.38;;;1.23;;
20480;SDS011;10399;50.754;3.366;2022-09-09T16:06:56;6.82;;;1.10;;
20480;SDS011;10399;50.754;3.366;2022-09-09T16:09:28;5.40;;;1.00;;
20480;SDS011;10399;50.754;3.366;2022-09-09T16:11:56;6.50;;;1.30;;
20480;SDS011;10399;50.754;3.366;2022-09-09T16:14:25;4.68;;;1.20;;
20480;SDS011;10399;50.754;3.366;2022-09-09T16:16:52;6.50;;;1.30;;
20480;SDS011;10399;50.754;3.366;2022-09-09T16:19:19;6.55;;;1.30;;
20480;SDS011;10399;50.754;3.366;2022-09-09T16:21:47;7.78;;;1.52;;
20480;SDS011;10399;50.754;3.366;2022-09-09T16:24:16;4.93;;;1.30;;
20480;SDS011;10399;50.754;3.366;2022-09-09T16:26:50;5.70;;;1.23;;
20480;SDS011;10399;50.754;3.366;2022-09-09T16:29:18;10.15;;;0.93;;
20480;SDS011;10399;50.754;3.366;2022-09-09T16:31:46;3.85;;;1.13;;
20480;SDS011;10399;50.754;3.366;2022-09-09T16:34:15;4.47;;;1.17;;
20480;SDS011;10399;50.754;3.366;2022-09-09T16:36:43;6.18;;;1.40;;
20480;SDS011;10399;50.754;3.366;2022-09-09T16:39:12;6.88;;;1.35;;
20480;SDS011;10399;50.754;3.366;2022-09-09T16:41:40;4.72;;;1.15;;
20480;SDS011;10399;50.754;3.366;2022-09-09T16:44:10;4.85;;;1.48;;
20480;SDS011;10399;50.754;3.366;2022-09-09T16:46:39;8.32;;;1.58;;
20480;SDS011;10399;50.754;3.366;2022-09-09T16:49:11;10.30;;;1.77;;
20480;SDS011;10399;50.754;3.366;2022-09-09T16:51:43;6.57;;;1.45;;
20480;SDS011;10399;50.754;3.366;2022-09-09T16:54:15;7.30;;;1.60;;
20480;SDS011;10399;50.754;3.366;2022-09-09T16:56:44;8.32;;;1.58;;
20480;SDS011;10399;50.754;3.366;2022-09-09T16:59:16;9.27;;;1.67;;
20480;SDS011;10399;50.754;3.366;2022-09-09T17:01:45;5.43;;;1.67;;
20480;SDS011;10399;50.754;3.366;2022-09-09T17:04:15;8.25;;;1.58;;
20480;SDS011;10399;50.754;3.366;2022-09-09T17:06:47;8.10;;;1.52;;
20480;SDS011;10399;50.754;3.366;2022-09-09T17:09:15;5.65;;;1.65;;
20480;SDS011;10399;50.754;3.366;2022-09-09T17:11:43;10.27;;;1.80;;
20480;SDS011;10399;50.754;3.366;2022-09-09T17:14:13;9.32;;;1.88;;
20480;SDS011;10399;50.754;3.366;2022-09-09T17:16:42;10.70;;;1.70;;
20480;SDS011;10399;50.754;3.366;2022-09-09T17:19:10;7.35;;;1.92;;
20480;SDS011;10399;50.754;3.366;2022-09-09T17:21:38;9.13;;;2.28;;
20480;SDS011;10399;50.754;3.366;2022-09-09T17:24:26;9.50;;;1.92;;
20480;SDS011;10399;50.754;3.366;2022-09-09T17:26:55;12.10;;;1.90;;
20480;SDS011;10399;50.754;3.366;2022-09-09T17:29:23;8.35;;;2.15;;
20480;SDS011;10399;50.754;3.366;2022-09-09T17:31:54;9.38;;;1.80;;